sensor_id;sensor_type;location;lat;lon;timestamp;pressure;altitude;pressure_sealevel;temperature;humidity
44148;BME280;29810;55.848;37.368;2023-06-14T00:00:27;99547.38;;;13.40;52.02
44148;BME280;29810;55.848;37.368;2023-06-14T00:03:29;99540.62;;;13.34;52.12
44148;BME280;29810;55.848;37.368;2023-06-14T00:06:33;99541.53;;;13.33;52.56
44148;BME280;29810;55.848;37.368;2023-06-14T00:09:35;99545.75;;;13.37;52.37
44148;BME280;29810;55.848;37.368;2023-06-14T00:12:38;99543.41;;;13.30;52.34
44148;BME280;29810;55.848;37.368;2023-06-14T00:15:40;99539.09;;;13.29;52.59
44148;BME280;29810;55.848;37.368;2023-06-14T00:18:42;99541.97;;;13.22;52.81
44148;BME280;29810;55.848;37.368;2023-06-14T00:21:43;99535.37;;;13.14;53.02
44148;BME280;29810;55.848;37.368;2023-06-14T00:24:45;99543.28;;;13.12;53.18
44148;BME280;29810;55.848;37.368;2023-06-14T00:27:49;99548.53;;;13.12;53.48
44148;BME280;29810;55.848;37.368;2023-06-14T00:30:50;99538.16;;;13.09;53.47
44148;BME280;29810;55.848;37.368;2023-06-14T00:33:52;99541.84;;;13.05;54.12
44148;BME280;29810;55.848;37.368;2023-06-14T00:36:53;99543.66;;;13.03;53.95
44148;BME280;29810;55.848;37.368;2023-06-14T00:39:55;99536.84;;;12.99;54.18
44148;BME280;29810;55.848;37.368;2023-06-14T00:42:57;99546.16;;;13.06;54.19
44148;BME280;29810;55.848;37.368;2023-06-14T00:45:58;99547.06;;;13.05;54.24
44148;BME280;29810;55.848;37.368;2023-06-14T00:49:01;99546.94;;;13.08;54.24
44148;BME280;29810;55.848;37.368;2023-06-14T00:52:03;99551.25;;;13.09;54.32
44148;BME280;29810;55.848;37.368;2023-06-14T00:55:05;99540.03;;;13.07;54.45
44148;BME280;29810;55.848;37.368;2023-06-14T00:58:08;99542.25;;;13.16;54.40
44148;BME280;29810;55.848;37.368;2023-06-14T01:01:10;99545.22;;;13.28;54.18
44148;BME280;29810;55.848;37.368;2023-06-14T01:04:11;99543.78;;;13.43;53.82
44148;BME280;29810;55.848;37.368;2023-06-14T01:11:28;99546.38;;;13.82;53.13
44148;BME280;29810;55.848;37.368;2023-06-14T01:14:34;99540.09;;;13.86;52.76
44148;BME280;29810;55.848;37.368;2023-06-14T01:17:36;99542.09;;;14.19;52.06
44148;BME280;29810;55.848;37.368;2023-06-14T01:20:46;99536.00;;;14.92;50.26
44148;BME280;29810;55.848;37.368;2023-06-14T01:23:51;99533.50;;;15.59;48.26
44148;BME280;29810;55.848;37.368;2023-06-14T01:26:57;99534.63;;;16.36;46.65
44148;BME280;29810;55.848;37.368;2023-06-14T01:30:02;99530.16;;;17.15;45.10
44148;BME280;29810;55.848;37.368;2023-06-14T01:33:06;99532.22;;;17.84;43.55
44148;BME280;29810;55.848;37.368;2023-06-14T01:36:09;99521.19;;;18.61;41.76
44148;BME280;29810;55.848;37.368;2023-06-14T01:39:13;99519.91;;;18.81;40.18
44148;BME280;29810;55.848;37.368;2023-06-14T01:42:16;99514.41;;;19.24;39.75
44148;BME280;29810;55.848;37.368;2023-06-14T01:45:18;99511.31;;;19.43;39.44
44148;BME280;29810;55.848;37.368;2023-06-14T01:48:21;99521.56;;;19.22;39.18
44148;BME280;29810;55.848;37.368;2023-06-14T01:51:22;99524.97;;;19.63;38.86
44148;BME280;29810;55.848;37.368;2023-06-14T01:54:24;99514.97;;;20.18;37.98
44148;BME280;29810;55.848;37.368;2023-06-14T01:57:26;99515.63;;;21.06;36.60
44148;BME280;29810;55.848;37.368;2023-06-14T02:00:28;99510.53;;;21.83;35.34
44148;BME280;29810;55.848;37.368;2023-06-14T02:03:30;99512.72;;;22.56;34.06
44148;BME280;29810;55.848;37.368;2023-06-14T02:06:32;99496.44;;;23.03;33.31
44148;BME280;29810;55.848;37.368;2023-06-14T02:09:34;99507.84;;;23.36;32.64
44148;BME280;29810;55.848;37.368;2023-06-14T02:12:36;99504.69;;;23.83;31.69
44148;BME280;29810;55.848;37.368;2023-06-14T02:15:38;99498.50;;;24.13;31.09
44148;BME280;29810;55.848;37.368;2023-06-14T02:18:39;99503.06;;;24.91;29.54
44148;BME280;29810;55.848;37.368;2023-06-14T02:22:01;99474.91;;;25.36;28.31
44148;BME280;29810;55.848;37.368;2023-06-14T02:25:03;99499.78;;;26.02;27.51
44148;BME280;29810;55.848;37.368;2023-06-14T02:28:04;99496.69;;;25.32;27.99
44148;BME280;29810;55.848;37.368;2023-06-14T02:31:06;99477.78;;;23.14;30.91
44148;BME280;29810;55.848;37.368;2023-06-14T02:34:08;99498.81;;;24.40;29.66
44148;BME280;29810;55.848;37.368;2023-06-14T02:37:09;99497.59;;;25.88;27.93
44148;BME280;29810;55.848;37.368;2023-06-14T02:40:12;99499.56;;;25.86;27.44
44148;BME280;29810;55.848;37.368;2023-06-14T02:43:13;99497.09;;;26.48;26.86
44148;BME280;29810;55.848;37.368;2023-06-14T02:46:16;99478.94;;;25.78;27.06
44148;BME280;29810;55.848;37.368;2023-06-14T02:49:17;99509.88;;;26.08;27.20
44148;BME280;29810;55.848;37.368;2023-06-14T02:52:19;99503.91;;;26.24;26.75
44148;BME280;29810;55.848;37.368;2023-06-14T02:55:21;99498.16;;;26.19;26.82
44148;BME280;29810;55.848;37.368;2023-06-14T02:58:23;99492.88;;;26.09;27.13
44148;BME280;29810;55.848;37.368;2023-06-14T03:01:27;99510.41;;;26.76;26.89
44148;BME280;29810;55.848;37.368;2023-06-14T03:04:36;99509.53;;;27.64;26.02
44148;BME280;29810;55.848;37.368;2023-06-14T03:07:42;99508.19;;;28.62;24.94
44148;BME280;29810;55.848;37.368;2023-06-14T03:10:47;99497.41;;;30.24;24.49
44148;BME280;29810;55.848;37.368;2023-06-14T03:13:48;99510.00;;;28.45;24.41
44148;BME280;29810;55.848;37.368;2023-06-14T03:16:52;99508.72;;;28.74;24.16
44148;BME280;29810;55.848;37.368;2023-06-14T03:19:58;99511.59;;;29.70;23.40
44148;BME280;29810;55.848;37.368;2023-06-14T03:23:01;99498.34;;;30.08;23.10
44148;BME280;29810;55.848;37.368;2023-06-14T03:26:03;99493.38;;;30.28;22.71
44148;BME280;29810;55.848;37.368;2023-06-14T03:29:05;99501.94;;;30.55;22.66
44148;BME280;29810;55.848;37.368;2023-06-14T03:32:07;99510.31;;;30.83;21.98
44148;BME280;29810;55.848;37.368;2023-06-14T03:35:09;99499.41;;;31.68;21.64
44148;BME280;29810;55.848;37.368;2023-06-14T03:38:18;99499.13;;;32.51;20.77
44148;BME280;29810;55.848;37.368;2023-06-14T03:41:20;99506.25;;;31.85;20.88
44148;BME280;29810;55.848;37.368;2023-06-14T03:44:26;99495.56;;;32.29;20.66
44148;BME280;29810;55.848;37.368;2023-06-14T03:47:28;99497.97;;;32.39;20.57
44148;BME280;29810;55.848;37.368;2023-06-14T03:50:30;99483.06;;;32.06;20.73
44148;BME280;29810;55.848;37.368;2023-06-14T03:53:33;99494.69;;;32.07;20.68
44148;BME280;29810;55.848;37.368;2023-06-14T03:56:38;99486.84;;;31.30;21.54
44148;BME280;29810;55.848;37.368;2023-06-14T03:59:41;99486.44;;;31.93;21.01
44148;BME280;29810;55.848;37.368;2023-06-14T04:02:43;99499.72;;;30.82;21.83
44148;BME280;29810;55.848;37.368;2023-06-14T04:05:45;99498.56;;;29.98;22.62
44148;BME280;29810;55.848;37.368;2023-06-14T04:08:51;99496.97;;;29.72;23.08
44148;BME280;29810;55.848;37.368;2023-06-14T04:11:53;99515.81;;;30.35;22.21
44148;BME280;29810;55.848;37.368;2023-06-14T04:14:55;99503.56;;;29.62;23.30
44148;BME280;29810;55.848;37.368;2023-06-14T04:17:56;99503.31;;;30.51;22.20
44148;BME280;29810;55.848;37.368;2023-06-14T04:20:58;99502.03;;;31.98;20.54
44148;BME280;29810;55.848;37.368;2023-06-14T04:24:00;99494.56;;;32.95;19.78
44148;BME280;29810;55.848;37.368;2023-06-14T04:27:03;99485.09;;;33.34;18.96
44148;BME280;29810;55.848;37.368;2023-06-14T04:30:06;99491.97;;;34.33;18.28
44148;BME280;29810;55.848;37.368;2023-06-14T04:33:08;99479.75;;;34.78;17.78
44148;BME280;29810;55.848;37.368;2023-06-14T04:36:11;99486.38;;;34.62;17.56
44148;BME280;29810;55.848;37.368;2023-06-14T04:39:13;99483.47;;;34.77;17.58
44148;BME280;29810;55.848;37.368;2023-06-14T04:42:16;99484.50;;;34.69;17.64
44148;BME280;29810;55.848;37.368;2023-06-14T04:45:18;99484.44;;;35.56;16.94
44148;BME280;29810;55.848;37.368;2023-06-14T04:48:21;99486.00;;;36.61;16.13
44148;BME280;29810;55.848;37.368;2023-06-14T04:51:23;99495.63;;;36.57;16.29
44148;BME280;29810;55.848;37.368;2023-06-14T04:54:31;99486.88;;;36.23;16.52
44148;BME280;29810;55.848;37.368;2023-06-14T04:57:38;99489.53;;;36.62;16.18
44148;BME280;29810;55.848;37.368;2023-06-14T05:00:40;99488.59;;;37.62;15.32
44148;BME280;29810;55.848;37.368;2023-06-14T05:03:43;99490.16;;;36.64;15.75
44148;BME280;29810;55.848;37.368;2023-06-14T05:06:46;99481.44;;;36.55;15.55
44148;BME280;29810;55.848;37.368;2023-06-14T05:09:54;99491.19;;;36.63;15.57
44148;BME280;29810;55.848;37.368;2023-06-14T05:12:56;99493.22;;;37.00;15.34
44148;BME280;29810;55.848;37.368;2023-06-14T05:15:57;99483.75;;;37.27;15.26
44148;BME280;29810;55.848;37.368;2023-06-14T05:18:59;99488.78;;;37.49;14.94
44148;BME280;29810;55.848;37.368;2023-06-14T05:22:02;99498.28;;;37.58;14.54
44148;BME280;29810;55.848;37.368;2023-06-14T05:25:04;99490.13;;;37.96;14.72
44148;BME280;29810;55.848;37.368;2023-06-14T05:28:06;99500.72;;;37.67;14.62
44148;BME280;29810;55.848;37.368;2023-06-14T05:31:08;99492.84;;;38.26;14.25
44148;BME280;29810;55.848;37.368;2023-06-14T05:34:09;99483.75;;;37.27;14.77
44148;BME280;29810;55.848;37.368;2023-06-14T05:37:11;99491.13;;;37.64;14.56
44148;BME280;29810;55.848;37.368;2023-06-14T05:40:12;99489.94;;;38.09;13.96
44148;BME280;29810;55.848;37.368;2023-06-14T05:43:14;99497.47;;;37.14;14.61
44148;BME280;29810;55.848;37.368;2023-06-14T05:46:16;99496.91;;;36.80;14.75
44148;BME280;29810;55.848;37.368;2023-06-14T05:49:23;99486.41;;;35.94;15.30
44148;BME280;29810;55.848;37.368;2023-06-14T05:52:24;99504.94;;;34.72;16.04
44148;BME280;29810;55.848;37.368;2023-06-14T05:55:26;99507.28;;;34.13;16.63
44148;BME280;29810;55.848;37.368;2023-06-14T05:58:28;99497.41;;;35.27;15.56
44148;BME280;29810;55.848;37.368;2023-06-14T06:01:29;99507.25;;;34.88;15.86
44148;BME280;29810;55.848;37.368;2023-06-14T06:04:32;99512.41;;;34.49;16.12
44148;BME280;29810;55.848;37.368;2023-06-14T06:07:33;99510.97;;;35.14;15.25
44148;BME280;29810;55.848;37.368;2023-06-14T06:10:35;99506.75;;;34.44;15.98
44148;BME280;29810;55.848;37.368;2023-06-14T06:13:36;99517.59;;;33.82;16.47
44148;BME280;29810;55.848;37.368;2023-06-14T06:16:38;99512.56;;;33.16;17.01
44148;BME280;29810;55.848;37.368;2023-06-14T06:19:40;99516.78;;;32.53;17.93
44148;BME280;29810;55.848;37.368;2023-06-14T06:22:41;99505.44;;;31.85;17.66
44148;BME280;29810;55.848;37.368;2023-06-14T06:25:43;99526.97;;;30.24;19.16
44148;BME280;29810;55.848;37.368;2023-06-14T06:28:44;99523.44;;;28.95;20.77
44148;BME280;29810;55.848;37.368;2023-06-14T06:31:46;99518.09;;;29.28;20.03
44148;BME280;29810;55.848;37.368;2023-06-14T06:34:48;99514.56;;;28.69;20.99
44148;BME280;29810;55.848;37.368;2023-06-14T06:37:49;99512.06;;;28.92;21.10
44148;BME280;29810;55.848;37.368;2023-06-14T06:40:51;99521.84;;;28.34;20.89
44148;BME280;29810;55.848;37.368;2023-06-14T06:43:52;99529.09;;;25.46;23.90
44148;BME280;29810;55.848;37.368;2023-06-14T06:46:54;99543.22;;;23.27;25.35
44148;BME280;29810;55.848;37.368;2023-06-14T06:49:55;99547.62;;;22.29;27.54
44148;BME280;29810;55.848;37.368;2023-06-14T06:52:57;99541.72;;;22.25;27.92
44148;BME280;29810;55.848;37.368;2023-06-14T06:55:58;99537.63;;;22.21;28.49
44148;BME280;29810;55.848;37.368;2023-06-14T06:59:01;99529.31;;;22.14;28.32
44148;BME280;29810;55.848;37.368;2023-06-14T07:02:02;99534.28;;;22.19;28.82
44148;BME280;29810;55.848;37.368;2023-06-14T07:05:04;99534.91;;;22.11;28.64
44148;BME280;29810;55.848;37.368;2023-06-14T07:08:07;99536.59;;;22.01;28.74
44148;BME280;29810;55.848;37.368;2023-06-14T07:14:10;99536.28;;;22.27;28.57
44148;BME280;29810;55.848;37.368;2023-06-14T07:17:12;99534.63;;;22.14;28.93
44148;BME280;29810;55.848;37.368;2023-06-14T07:20:14;99528.25;;;21.72;29.39
44148;BME280;29810;55.848;37.368;2023-06-14T07:23:17;99527.78;;;21.55;30.08
44148;BME280;29810;55.848;37.368;2023-06-14T07:26:19;99535.75;;;21.55;30.35
44148;BME280;29810;55.848;37.368;2023-06-14T07:29:20;99494.28;;;21.54;30.05
44148;BME280;29810;55.848;37.368;2023-06-14T07:32:22;99514.88;;;21.84;29.96
44148;BME280;29810;55.848;37.368;2023-06-14T07:35:24;99528.97;;;22.08;29.58
44148;BME280;29810;55.848;37.368;2023-06-14T07:38:28;99523.81;;;21.95;29.50
44148;BME280;29810;55.848;37.368;2023-06-14T07:41:32;99536.47;;;21.57;29.54
44148;BME280;29810;55.848;37.368;2023-06-14T07:44:33;99530.97;;;21.36;30.41
44148;BME280;29810;55.848;37.368;2023-06-14T07:47:35;99519.78;;;21.44;29.77
44148;BME280;29810;55.848;37.368;2023-06-14T07:50:37;99513.19;;;21.61;29.89
44148;BME280;29810;55.848;37.368;2023-06-14T07:53:42;99517.66;;;21.83;29.93
44148;BME280;29810;55.848;37.368;2023-06-14T07:56:43;99510.53;;;21.83;29.58
44148;BME280;29810;55.848;37.368;2023-06-14T07:59:45;99517.28;;;21.99;29.60
44148;BME280;29810;55.848;37.368;2023-06-14T08:02:47;99501.56;;;22.19;29.12
44148;BME280;29810;55.848;37.368;2023-06-14T08:05:49;99522.72;;;22.09;29.63
44148;BME280;29810;55.848;37.368;2023-06-14T08:08:50;99521.91;;;21.63;29.67
44148;BME280;29810;55.848;37.368;2023-06-14T08:11:52;99536.81;;;21.53;30.25
44148;BME280;29810;55.848;37.368;2023-06-14T08:14:53;99515.09;;;21.47;29.50
44148;BME280;29810;55.848;37.368;2023-06-14T08:17:55;99519.81;;;21.78;29.49
44148;BME280;29810;55.848;37.368;2023-06-14T08:20:57;99530.41;;;22.12;28.97
44148;BME280;29810;55.848;37.368;2023-06-14T08:23:59;99518.22;;;22.21;28.51
44148;BME280;29810;55.848;37.368;2023-06-14T08:27:09;99515.69;;;22.19;28.43
44148;BME280;29810;55.848;37.368;2023-06-14T08:30:12;99505.69;;;22.00;28.40
44148;BME280;29810;55.848;37.368;2023-06-14T08:33:13;99526.72;;;21.92;28.70
44148;BME280;29810;55.848;37.368;2023-06-14T08:36:15;99519.00;;;21.66;29.64
44148;BME280;29810;55.848;37.368;2023-06-14T08:39:17;99524.75;;;21.48;29.32
44148;BME280;29810;55.848;37.368;2023-06-14T08:42:21;99523.06;;;21.59;29.22
44148;BME280;29810;55.848;37.368;2023-06-14T08:45:24;99514.63;;;21.88;28.81
44148;BME280;29810;55.848;37.368;2023-06-14T08:48:26;99511.97;;;22.10;28.84
44148;BME280;29810;55.848;37.368;2023-06-14T08:51:31;99525.50;;;21.84;29.03
44148;BME280;29810;55.848;37.368;2023-06-14T08:54:41;99513.78;;;21.98;28.25
44148;BME280;29810;55.848;37.368;2023-06-14T08:57:49;99514.50;;;22.00;29.12
44148;BME280;29810;55.848;37.368;2023-06-14T09:00:51;99513.31;;;21.82;29.07
44148;BME280;29810;55.848;37.368;2023-06-14T09:03:53;99509.69;;;21.83;28.79
44148;BME280;29810;55.848;37.368;2023-06-14T09:06:58;99501.09;;;22.13;28.75
44148;BME280;29810;55.848;37.368;2023-06-14T09:10:11;99495.97;;;22.33;28.48
44148;BME280;29810;55.848;37.368;2023-06-14T09:13:13;99493.47;;;22.64;28.71
44148;BME280;29810;55.848;37.368;2023-06-14T09:16:18;99496.59;;;22.69;28.53
44148;BME280;29810;55.848;37.368;2023-06-14T09:19:24;99464.38;;;22.62;28.71
44148;BME280;29810;55.848;37.368;2023-06-14T09:22:33;99495.03;;;22.23;29.56
44148;BME280;29810;55.848;37.368;2023-06-14T09:25:45;99490.44;;;22.36;28.99
44148;BME280;29810;55.848;37.368;2023-06-14T09:28:49;99483.84;;;22.52;28.83
44148;BME280;29810;55.848;37.368;2023-06-14T09:31:51;99486.50;;;22.19;28.72
44148;BME280;29810;55.848;37.368;2023-06-14T09:34:52;99473.09;;;22.09;29.08
44148;BME280;29810;55.848;37.368;2023-06-14T09:37:55;99483.66;;;22.32;28.68
44148;BME280;29810;55.848;37.368;2023-06-14T09:40:58;99477.25;;;22.34;29.23
44148;BME280;29810;55.848;37.368;2023-06-14T09:44:02;99471.72;;;22.38;29.89
44148;BME280;29810;55.848;37.368;2023-06-14T09:47:05;99472.50;;;22.61;29.10
44148;BME280;29810;55.848;37.368;2023-06-14T09:50:07;99469.59;;;22.53;28.55
44148;BME280;29810;55.848;37.368;2023-06-14T09:53:11;99463.03;;;22.68;28.73
44148;BME280;29810;55.848;37.368;2023-06-14T09:56:13;99472.97;;;22.87;28.78
44148;BME280;29810;55.848;37.368;2023-06-14T09:59:21;99472.88;;;22.77;28.45
44148;BME280;29810;55.848;37.368;2023-06-14T10:02:35;99469.09;;;22.59;29.53
44148;BME280;29810;55.848;37.368;2023-06-14T10:05:41;99447.09;;;22.68;29.29
44148;BME280;29810;55.848;37.368;2023-06-14T10:08:44;99463.34;;;22.75;29.40
44148;BME280;29810;55.848;37.368;2023-06-14T10:11:48;99448.78;;;22.69;29.59
44148;BME280;29810;55.848;37.368;2023-06-14T10:14:51;99448.19;;;22.87;29.27
44148;BME280;29810;55.848;37.368;2023-06-14T10:18:09;99452.81;;;22.85;28.48
44148;BME280;29810;55.848;37.368;2023-06-14T10:24:17;99443.91;;;22.53;28.76
44148;BME280;29810;55.848;37.368;2023-06-14T10:27:20;99448.31;;;22.64;28.61
44148;BME280;29810;55.848;37.368;2023-06-14T10:30:26;99441.72;;;22.79;28.47
44148;BME280;29810;55.848;37.368;2023-06-14T10:33:27;99454.94;;;22.37;28.39
44148;BME280;29810;55.848;37.368;2023-06-14T10:36:29;99437.81;;;22.30;28.96
44148;BME280;29810;55.848;37.368;2023-06-14T10:39:39;99436.72;;;22.44;28.03
44148;BME280;29810;55.848;37.368;2023-06-14T10:42:51;99427.69;;;22.56;28.45
44148;BME280;29810;55.848;37.368;2023-06-14T10:46:15;99428.34;;;22.70;28.07
44148;BME280;29810;55.848;37.368;2023-06-14T10:49:19;99426.78;;;22.88;27.55
44148;BME280;29810;55.848;37.368;2023-06-14T10:52:22;99432.00;;;22.90;28.51
44148;BME280;29810;55.848;37.368;2023-06-14T10:55:24;99437.41;;;22.88;28.07
44148;BME280;29810;55.848;37.368;2023-06-14T10:58:26;99418.75;;;22.78;27.58
44148;BME280;29810;55.848;37.368;2023-06-14T11:01:37;99415.38;;;22.76;27.78
44148;BME280;29810;55.848;37.368;2023-06-14T11:04:52;99421.75;;;22.85;27.49
44148;BME280;29810;55.848;37.368;2023-06-14T11:08:09;99411.50;;;22.59;28.05
44148;BME280;29810;55.848;37.368;2023-06-14T11:11:14;99402.41;;;22.62;27.89
44148;BME280;29810;55.848;37.368;2023-06-14T11:14:16;99413.91;;;22.83;27.73
44148;BME280;29810;55.848;37.368;2023-06-14T11:17:19;99399.87;;;22.81;27.88
44148;BME280;29810;55.848;37.368;2023-06-14T11:20:25;99405.31;;;23.01;26.92
44148;BME280;29810;55.848;37.368;2023-06-14T11:23:27;99406.19;;;23.02;26.83
44148;BME280;29810;55.848;37.368;2023-06-14T11:26:30;99417.50;;;23.04;26.53
44148;BME280;29810;55.848;37.368;2023-06-14T11:29:33;99406.03;;;23.03;26.13
44148;BME280;29810;55.848;37.368;2023-06-14T11:32:35;99392.56;;;23.16;26.34
44148;BME280;29810;55.848;37.368;2023-06-14T11:35:37;99397.78;;;23.06;26.85
44148;BME280;29810;55.848;37.368;2023-06-14T11:38:39;99382.06;;;23.14;26.94
44148;BME280;29810;55.848;37.368;2023-06-14T11:41:43;99389.41;;;23.32;27.27
44148;BME280;29810;55.848;37.368;2023-06-14T11:44:46;99385.97;;;23.51;27.32
44148;BME280;29810;55.848;37.368;2023-06-14T11:47:50;99393.25;;;23.49;27.26
44148;BME280;29810;55.848;37.368;2023-06-14T11:50:52;99395.69;;;23.31;27.22
44148;BME280;29810;55.848;37.368;2023-06-14T11:53:54;99382.63;;;23.18;26.84
44148;BME280;29810;55.848;37.368;2023-06-14T11:56:57;99382.00;;;23.36;26.88
44148;BME280;29810;55.848;37.368;2023-06-14T11:59:58;99376.31;;;23.50;26.92
44148;BME280;29810;55.848;37.368;2023-06-14T12:03:00;99378.19;;;23.28;26.58
44148;BME280;29810;55.848;37.368;2023-06-14T12:06:06;99381.50;;;23.21;26.33
44148;BME280;29810;55.848;37.368;2023-06-14T12:09:11;99373.44;;;23.32;26.49
44148;BME280;29810;55.848;37.368;2023-06-14T12:12:16;99382.38;;;23.21;26.52
44148;BME280;29810;55.848;37.368;2023-06-14T12:15:17;99369.75;;;23.23;26.84
44148;BME280;29810;55.848;37.368;2023-06-14T12:18:19;99358.34;;;23.42;26.89
44148;BME280;29810;55.848;37.368;2023-06-14T12:21:22;99381.47;;;23.52;26.39
44148;BME280;29810;55.848;37.368;2023-06-14T12:24:28;99374.47;;;23.51;26.19
44148;BME280;29810;55.848;37.368;2023-06-14T12:27:50;99375.34;;;23.61;26.13
44148;BME280;29810;55.848;37.368;2023-06-14T12:31:43;99359.91;;;23.55;25.76
44148;BME280;29810;55.848;37.368;2023-06-14T12:34:45;99357.94;;;23.47;25.44
44148;BME280;29810;55.848;37.368;2023-06-14T12:37:46;99353.47;;;23.47;25.93
44148;BME280;29810;55.848;37.368;2023-06-14T12:40:48;99370.94;;;23.40;26.08
44148;BME280;29810;55.848;37.368;2023-06-14T12:43:53;99360.44;;;23.29;26.47
44148;BME280;29810;55.848;37.368;2023-06-14T12:47:13;99362.94;;;23.30;26.29
44148;BME280;29810;55.848;37.368;2023-06-14T12:50:22;99352.03;;;23.34;26.11
44148;BME280;29810;55.848;37.368;2023-06-14T12:53:24;99348.97;;;23.48;25.11
44148;BME280;29810;55.848;37.368;2023-06-14T12:56:26;99348.31;;;23.56;25.52
44148;BME280;29810;55.848;37.368;2023-06-14T12:59:27;99326.03;;;23.57;25.59
44148;BME280;29810;55.848;37.368;2023-06-14T13:02:34;99335.72;;;23.68;25.62
44148;BME280;29810;55.848;37.368;2023-06-14T13:05:36;99322.13;;;23.51;26.33
44148;BME280;29810;55.848;37.368;2023-06-14T13:08:38;99332.06;;;23.59;26.14
44148;BME280;29810;55.848;37.368;2023-06-14T13:11:42;99345.09;;;23.62;25.64
44148;BME280;29810;55.848;37.368;2023-06-14T13:14:47;99335.81;;;23.46;26.25
44148;BME280;29810;55.848;37.368;2023-06-14T13:17:48;99320.44;;;23.60;25.55
44148;BME280;29810;55.848;37.368;2023-06-14T13:20:50;99334.72;;;23.59;25.25
44148;BME280;29810;55.848;37.368;2023-06-14T13:23:52;99331.09;;;23.70;25.00
44148;BME280;29810;55.848;37.368;2023-06-14T13:26:54;99337.69;;;23.65;25.41
44148;BME280;29810;55.848;37.368;2023-06-14T13:29:57;99340.00;;;23.39;25.69
44148;BME280;29810;55.848;37.368;2023-06-14T13:32:59;99330.50;;;23.37;25.73
44148;BME280;29810;55.848;37.368;2023-06-14T13:36:01;99324.59;;;23.43;25.39
44148;BME280;29810;55.848;37.368;2023-06-14T13:39:03;99313.03;;;23.63;25.27
44148;BME280;29810;55.848;37.368;2023-06-14T13:42:05;99321.16;;;23.72;25.75
44148;BME280;29810;55.848;37.368;2023-06-14T13:45:07;99328.03;;;23.64;25.66
44148;BME280;29810;55.848;37.368;2023-06-14T13:48:09;99316.41;;;23.75;25.86
44148;BME280;29810;55.848;37.368;2023-06-14T13:51:11;99305.09;;;23.93;25.90
44148;BME280;29810;55.848;37.368;2023-06-14T13:54:13;99313.09;;;23.93;26.41
44148;BME280;29810;55.848;37.368;2023-06-14T13:57:16;99324.09;;;23.69;27.11
44148;BME280;29810;55.848;37.368;2023-06-14T14:00:18;99320.69;;;23.37;27.54
44148;BME280;29810;55.848;37.368;2023-06-14T14:03:20;99315.37;;;23.47;27.08
44148;BME280;29810;55.848;37.368;2023-06-14T14:06:22;99304.47;;;23.60;27.07
44148;BME280;29810;55.848;37.368;2023-06-14T14:09:24;99298.06;;;23.72;26.66
44148;BME280;29810;55.848;37.368;2023-06-14T14:12:26;99313.75;;;23.85;26.94
44148;BME280;29810;55.848;37.368;2023-06-14T14:15:27;99312.22;;;23.83;25.82
44148;BME280;29810;55.848;37.368;2023-06-14T14:18:29;99309.84;;;23.99;25.62
44148;BME280;29810;55.848;37.368;2023-06-14T14:21:32;99310.94;;;23.87;25.81
44148;BME280;29810;55.848;37.368;2023-06-14T14:24:34;99305.78;;;23.85;25.59
44148;BME280;29810;55.848;37.368;2023-06-14T14:27:36;99307.31;;;23.88;25.55
44148;BME280;29810;55.848;37.368;2023-06-14T14:30:38;99301.41;;;23.74;25.60
44148;BME280;29810;55.848;37.368;2023-06-14T14:33:44;99306.72;;;23.64;25.70
44148;BME280;29810;55.848;37.368;2023-06-14T14:36:45;99303.38;;;23.72;26.15
44148;BME280;29810;55.848;37.368;2023-06-14T14:39:47;99301.69;;;23.81;25.81
44148;BME280;29810;55.848;37.368;2023-06-14T14:42:48;99302.00;;;23.97;25.38
44148;BME280;29810;55.848;37.368;2023-06-14T14:45:50;99298.91;;;23.92;25.77
44148;BME280;29810;55.848;37.368;2023-06-14T14:48:52;99296.69;;;23.97;25.51
44148;BME280;29810;55.848;37.368;2023-06-14T14:51:54;99290.78;;;23.94;25.54
44148;BME280;29810;55.848;37.368;2023-06-14T14:54:57;99300.31;;;23.87;25.49
44148;BME280;29810;55.848;37.368;2023-06-14T14:57:59;99309.38;;;23.74;25.85
44148;BME280;29810;55.848;37.368;2023-06-14T15:01:00;99309.97;;;23.68;26.09
44148;BME280;29810;55.848;37.368;2023-06-14T15:04:02;99313.06;;;23.73;26.28
44148;BME280;29810;55.848;37.368;2023-06-14T15:07:03;99304.78;;;23.86;26.22
44148;BME280;29810;55.848;37.368;2023-06-14T15:10:06;99303.84;;;23.97;26.31
44148;BME280;29810;55.848;37.368;2023-06-14T15:13:08;99292.84;;;23.61;26.74
44148;BME280;29810;55.848;37.368;2023-06-14T15:16:10;99301.97;;;23.48;26.36
44148;BME280;29810;55.848;37.368;2023-06-14T15:19:11;99303.22;;;23.54;26.47
44148;BME280;29810;55.848;37.368;2023-06-14T15:22:13;99300.69;;;23.53;26.19
44148;BME280;29810;55.848;37.368;2023-06-14T15:25:18;99315.25;;;23.48;26.42
44148;BME280;29810;55.848;37.368;2023-06-14T15:28:22;99320.16;;;23.43;26.14
44148;BME280;29810;55.848;37.368;2023-06-14T15:31:25;99313.69;;;23.36;25.95
44148;BME280;29810;55.848;37.368;2023-06-14T15:34:29;99322.63;;;23.35;26.57
44148;BME280;29810;55.848;37.368;2023-06-14T15:37:30;99320.97;;;23.34;26.40
44148;BME280;29810;55.848;37.368;2023-06-14T15:40:32;99318.41;;;23.32;25.71
44148;BME280;29810;55.848;37.368;2023-06-14T15:43:33;99309.03;;;23.28;26.05
44148;BME280;29810;55.848;37.368;2023-06-14T15:46:35;99313.97;;;23.33;26.16
44148;BME280;29810;55.848;37.368;2023-06-14T15:49:36;99305.50;;;23.18;25.98
44148;BME280;29810;55.848;37.368;2023-06-14T15:52:38;99309.47;;;23.24;26.16
44148;BME280;29810;55.848;37.368;2023-06-14T15:55:40;99311.69;;;23.19;26.11
44148;BME280;29810;55.848;37.368;2023-06-14T15:58:42;99312.12;;;23.24;26.49
44148;BME280;29810;55.848;37.368;2023-06-14T16:01:43;99316.00;;;23.20;26.62
44148;BME280;29810;55.848;37.368;2023-06-14T16:04:45;99314.34;;;23.19;26.24
44148;BME280;29810;55.848;37.368;2023-06-14T16:07:48;99315.66;;;23.03;26.18